Terminal Aerodrome Forecast
Issued by NWS Sioux Falls, SD

Home | Current Version | Previous Version | Text Only | Print | Product List | Glossary On
Versions: 1 2 3 4 5 6 7 8 9 10 11 12
000
FTUS43 KFSD 251120
TAFHON
TAF
KHON 251120Z 2512/2612 15016G24KT P6SM BKN100 WS015/17045KT
     FM251300 16017G24KT P6SM BKN100
     FM251800 19012KT P6SM BKN120
     FM252100 22009KT P6SM BKN130
     FM260200 22005KT P6SM SCT250
     FM260800 28006KT P6SM SCT250=

USA.gov is the U.S. government's official web portal to all federal, state and local government web resources and services.